sensor_id;sensor_type;location;lat;lon;timestamp;P1;durP1;ratioP1;P2;durP2;ratioP2
2860;SDS011;1438;50.922;6.704;2023-05-17T00:02:20;8.38;;;3.00;;
2860;SDS011;1438;50.922;6.704;2023-05-17T00:04:46;5.53;;;2.80;;
2860;SDS011;1438;50.922;6.704;2023-05-17T00:07:12;8.17;;;3.50;;
2860;SDS011;1438;50.922;6.704;2023-05-17T00:09:38;6.13;;;2.90;;
2860;SDS011;1438;50.922;6.704;2023-05-17T00:12:04;5.73;;;2.70;;
2860;SDS011;1438;50.922;6.704;2023-05-17T00:14:30;8.15;;;3.17;;
2860;SDS011;1438;50.922;6.704;2023-05-17T00:16:56;8.43;;;3.70;;
2860;SDS011;1438;50.922;6.704;2023-05-17T00:19:22;9.10;;;3.10;;
2860;SDS011;1438;50.922;6.704;2023-05-17T00:21:48;5.90;;;3.90;;
2860;SDS011;1438;50.922;6.704;2023-05-17T00:24:14;5.88;;;2.90;;
2860;SDS011;1438;50.922;6.704;2023-05-17T00:26:40;9.03;;;3.70;;
2860;SDS011;1438;50.922;6.704;2023-05-17T00:29:06;8.50;;;3.37;;
2860;SDS011;1438;50.922;6.704;2023-05-17T00:31:32;10.38;;;3.50;;
2860;SDS011;1438;50.922;6.704;2023-05-17T00:33:58;5.77;;;2.97;;
2860;SDS011;1438;50.922;6.704;2023-05-17T00:36:24;6.57;;;3.37;;
2860;SDS011;1438;50.922;6.704;2023-05-17T00:38:50;11.38;;;3.50;;
2860;SDS011;1438;50.922;6.704;2023-05-17T00:41:16;6.07;;;3.17;;
2860;SDS011;1438;50.922;6.704;2023-05-17T00:43:42;4.93;;;3.20;;
2860;SDS011;1438;50.922;6.704;2023-05-17T00:46:08;5.87;;;3.33;;
2860;SDS011;1438;50.922;6.704;2023-05-17T00:48:34;5.50;;;2.90;;
2860;SDS011;1438;50.922;6.704;2023-05-17T00:51:00;7.68;;;2.88;;
2860;SDS011;1438;50.922;6.704;2023-05-17T00:53:26;9.30;;;4.65;;
2860;SDS011;1438;50.922;6.704;2023-05-17T00:55:53;7.85;;;3.30;;
2860;SDS011;1438;50.922;6.704;2023-05-17T00:58:19;7.80;;;4.15;;
2860;SDS011;1438;50.922;6.704;2023-05-17T01:00:46;6.57;;;3.80;;
2860;SDS011;1438;50.922;6.704;2023-05-17T01:03:12;9.15;;;3.35;;
2860;SDS011;1438;50.922;6.704;2023-05-17T01:05:38;5.10;;;3.45;;
2860;SDS011;1438;50.922;6.704;2023-05-17T01:08:04;7.33;;;3.50;;
2860;SDS011;1438;50.922;6.704;2023-05-17T01:10:34;7.07;;;3.05;;
2860;SDS011;1438;50.922;6.704;2023-05-17T01:13:08;9.63;;;3.50;;
2860;SDS011;1438;50.922;6.704;2023-05-17T01:15:38;5.30;;;3.72;;
2860;SDS011;1438;50.922;6.704;2023-05-17T01:18:16;6.40;;;3.25;;
2860;SDS011;1438;50.922;6.704;2023-05-17T01:20:44;10.07;;;3.05;;
2860;SDS011;1438;50.922;6.704;2023-05-17T01:28:31;8.25;;;4.40;;
2860;SDS011;1438;50.922;6.704;2023-05-17T01:30:57;7.28;;;3.40;;
2860;SDS011;1438;50.922;6.704;2023-05-17T01:33:25;6.82;;;3.33;;
2860;SDS011;1438;50.922;6.704;2023-05-17T01:35:51;7.50;;;3.22;;
2860;SDS011;1438;50.922;6.704;2023-05-17T01:38:17;10.65;;;3.40;;
2860;SDS011;1438;50.922;6.704;2023-05-17T01:40:47;4.22;;;3.60;;
2860;SDS011;1438;50.922;6.704;2023-05-17T01:43:20;4.93;;;3.08;;
2860;SDS011;1438;50.922;6.704;2023-05-17T01:45:52;9.68;;;3.72;;
2860;SDS011;1438;50.922;6.704;2023-05-17T01:48:27;9.85;;;3.88;;
2860;SDS011;1438;50.922;6.704;2023-05-17T01:50:53;10.02;;;3.63;;
2860;SDS011;1438;50.922;6.704;2023-05-17T01:53:38;10.73;;;4.35;;
2860;SDS011;1438;50.922;6.704;2023-05-17T01:56:06;4.28;;;3.00;;
2860;SDS011;1438;50.922;6.704;2023-05-17T01:58:38;8.82;;;3.58;;
2860;SDS011;1438;50.922;6.704;2023-05-17T02:01:04;7.78;;;3.00;;
2860;SDS011;1438;50.922;6.704;2023-05-17T02:03:31;9.43;;;4.35;;
2860;SDS011;1438;50.922;6.704;2023-05-17T02:05:57;5.05;;;3.45;;
2860;SDS011;1438;50.922;6.704;2023-05-17T02:08:23;9.35;;;4.32;;
2860;SDS011;1438;50.922;6.704;2023-05-17T02:10:49;7.22;;;3.30;;
2860;SDS011;1438;50.922;6.704;2023-05-17T02:13:15;7.53;;;3.75;;
2860;SDS011;1438;50.922;6.704;2023-05-17T02:15:41;11.73;;;5.47;;
2860;SDS011;1438;50.922;6.704;2023-05-17T02:18:07;5.20;;;4.22;;
2860;SDS011;1438;50.922;6.704;2023-05-17T02:20:35;9.48;;;4.22;;
2860;SDS011;1438;50.922;6.704;2023-05-17T02:23:01;13.48;;;4.70;;
2860;SDS011;1438;50.922;6.704;2023-05-17T02:25:27;5.40;;;3.42;;
2860;SDS011;1438;50.922;6.704;2023-05-17T02:27:53;5.55;;;3.80;;
2860;SDS011;1438;50.922;6.704;2023-05-17T02:30:19;7.93;;;3.70;;
2860;SDS011;1438;50.922;6.704;2023-05-17T02:32:46;8.55;;;2.92;;
2860;SDS011;1438;50.922;6.704;2023-05-17T02:35:12;4.20;;;3.22;;
2860;SDS011;1438;50.922;6.704;2023-05-17T02:37:39;6.63;;;4.65;;
2860;SDS011;1438;50.922;6.704;2023-05-17T02:40:05;5.97;;;3.50;;
2860;SDS011;1438;50.922;6.704;2023-05-17T02:42:34;6.47;;;4.40;;
2860;SDS011;1438;50.922;6.704;2023-05-17T02:45:00;7.50;;;4.15;;
2860;SDS011;1438;50.922;6.704;2023-05-17T02:47:26;4.10;;;3.17;;
2860;SDS011;1438;50.922;6.704;2023-05-17T02:49:52;7.55;;;4.78;;
2860;SDS011;1438;50.922;6.704;2023-05-17T02:52:18;5.63;;;4.13;;
2860;SDS011;1438;50.922;6.704;2023-05-17T02:54:44;6.90;;;4.50;;
2860;SDS011;1438;50.922;6.704;2023-05-17T02:57:10;7.25;;;4.63;;
2860;SDS011;1438;50.922;6.704;2023-05-17T02:59:36;7.13;;;4.32;;
2860;SDS011;1438;50.922;6.704;2023-05-17T03:02:02;8.82;;;4.03;;
2860;SDS011;1438;50.922;6.704;2023-05-17T03:04:28;15.00;;;5.00;;
2860;SDS011;1438;50.922;6.704;2023-05-17T03:06:54;7.70;;;4.85;;
2860;SDS011;1438;50.922;6.704;2023-05-17T03:09:20;5.10;;;4.15;;
2860;SDS011;1438;50.922;6.704;2023-05-17T03:11:46;4.95;;;4.45;;
2860;SDS011;1438;50.922;6.704;2023-05-17T03:14:12;7.97;;;4.75;;
2860;SDS011;1438;50.922;6.704;2023-05-17T03:16:38;9.48;;;5.47;;
2860;SDS011;1438;50.922;6.704;2023-05-17T03:19:04;8.07;;;5.13;;
2860;SDS011;1438;50.922;6.704;2023-05-17T03:21:30;10.18;;;5.47;;
2860;SDS011;1438;50.922;6.704;2023-05-17T03:23:56;13.68;;;4.95;;
2860;SDS011;1438;50.922;6.704;2023-05-17T03:26:22;8.27;;;5.10;;
2860;SDS011;1438;50.922;6.704;2023-05-17T03:28:48;10.50;;;5.50;;
2860;SDS011;1438;50.922;6.704;2023-05-17T03:31:15;8.32;;;6.38;;
2860;SDS011;1438;50.922;6.704;2023-05-17T03:33:41;9.25;;;5.93;;
2860;SDS011;1438;50.922;6.704;2023-05-17T03:36:07;13.80;;;6.63;;
2860;SDS011;1438;50.922;6.704;2023-05-17T03:38:33;14.32;;;6.85;;
2860;SDS011;1438;50.922;6.704;2023-05-17T03:40:59;10.70;;;5.82;;
2860;SDS011;1438;50.922;6.704;2023-05-17T03:43:25;7.80;;;5.93;;
2860;SDS011;1438;50.922;6.704;2023-05-17T03:45:52;11.40;;;5.85;;
2860;SDS011;1438;50.922;6.704;2023-05-17T03:48:18;10.68;;;6.85;;
2860;SDS011;1438;50.922;6.704;2023-05-17T03:50:44;9.82;;;6.53;;
2860;SDS011;1438;50.922;6.704;2023-05-17T03:53:10;13.95;;;6.85;;
2860;SDS011;1438;50.922;6.704;2023-05-17T03:55:36;15.00;;;6.68;;
2860;SDS011;1438;50.922;6.704;2023-05-17T03:58:02;14.27;;;6.78;;
2860;SDS011;1438;50.922;6.704;2023-05-17T04:00:28;17.02;;;7.55;;
2860;SDS011;1438;50.922;6.704;2023-05-17T04:02:54;7.85;;;5.93;;
2860;SDS011;1438;50.922;6.704;2023-05-17T04:05:21;12.13;;;6.40;;
2860;SDS011;1438;50.922;6.704;2023-05-17T04:07:47;10.52;;;6.30;;
2860;SDS011;1438;50.922;6.704;2023-05-17T04:10:13;12.38;;;6.22;;
2860;SDS011;1438;50.922;6.704;2023-05-17T04:12:39;11.32;;;7.38;;
2860;SDS011;1438;50.922;6.704;2023-05-17T04:15:05;14.55;;;6.53;;
2860;SDS011;1438;50.922;6.704;2023-05-17T04:17:31;15.20;;;6.65;;
2860;SDS011;1438;50.922;6.704;2023-05-17T04:19:57;11.05;;;6.70;;
2860;SDS011;1438;50.922;6.704;2023-05-17T04:22:23;14.75;;;7.00;;
2860;SDS011;1438;50.922;6.704;2023-05-17T04:24:49;10.65;;;5.80;;
2860;SDS011;1438;50.922;6.704;2023-05-17T04:27:15;28.05;;;7.28;;
2860;SDS011;1438;50.922;6.704;2023-05-17T04:29:42;13.77;;;7.78;;
2860;SDS011;1438;50.922;6.704;2023-05-17T04:32:08;24.30;;;7.93;;
2860;SDS011;1438;50.922;6.704;2023-05-17T04:34:34;15.05;;;7.80;;
2860;SDS011;1438;50.922;6.704;2023-05-17T04:37:01;15.48;;;7.53;;
2860;SDS011;1438;50.922;6.704;2023-05-17T04:39:27;13.02;;;7.43;;
2860;SDS011;1438;50.922;6.704;2023-05-17T04:41:54;14.80;;;7.80;;
2860;SDS011;1438;50.922;6.704;2023-05-17T04:44:20;11.18;;;7.93;;
2860;SDS011;1438;50.922;6.704;2023-05-17T04:46:46;14.18;;;8.07;;
2860;SDS011;1438;50.922;6.704;2023-05-17T04:49:12;13.60;;;8.05;;
2860;SDS011;1438;50.922;6.704;2023-05-17T04:51:38;17.05;;;9.02;;
2860;SDS011;1438;50.922;6.704;2023-05-17T04:54:04;12.75;;;8.60;;
2860;SDS011;1438;50.922;6.704;2023-05-17T04:56:33;15.63;;;9.85;;
2860;SDS011;1438;50.922;6.704;2023-05-17T04:58:59;22.63;;;10.43;;
2860;SDS011;1438;50.922;6.704;2023-05-17T05:01:26;26.95;;;11.43;;
2860;SDS011;1438;50.922;6.704;2023-05-17T05:03:54;18.60;;;9.73;;
2860;SDS011;1438;50.922;6.704;2023-05-17T05:06:21;19.55;;;11.25;;
2860;SDS011;1438;50.922;6.704;2023-05-17T05:08:47;15.85;;;11.32;;
2860;SDS011;1438;50.922;6.704;2023-05-17T05:11:13;21.92;;;12.40;;
2860;SDS011;1438;50.922;6.704;2023-05-17T05:13:39;20.08;;;11.40;;
2860;SDS011;1438;50.922;6.704;2023-05-17T05:16:06;19.67;;;11.82;;
2860;SDS011;1438;50.922;6.704;2023-05-17T05:18:32;34.20;;;13.18;;
2860;SDS011;1438;50.922;6.704;2023-05-17T05:20:58;26.77;;;13.85;;
2860;SDS011;1438;50.922;6.704;2023-05-17T05:23:25;22.52;;;14.75;;
2860;SDS011;1438;50.922;6.704;2023-05-17T05:25:51;27.25;;;14.38;;
2860;SDS011;1438;50.922;6.704;2023-05-17T05:28:17;25.52;;;16.27;;
2860;SDS011;1438;50.922;6.704;2023-05-17T05:30:43;26.42;;;15.80;;
2860;SDS011;1438;50.922;6.704;2023-05-17T05:33:09;27.73;;;16.55;;
2860;SDS011;1438;50.922;6.704;2023-05-17T05:35:35;37.00;;;17.30;;
2860;SDS011;1438;50.922;6.704;2023-05-17T05:38:01;31.30;;;15.80;;
2860;SDS011;1438;50.922;6.704;2023-05-17T05:40:27;28.20;;;17.27;;
2860;SDS011;1438;50.922;6.704;2023-05-17T05:42:53;35.95;;;19.30;;
2860;SDS011;1438;50.922;6.704;2023-05-17T05:45:19;34.13;;;17.35;;
2860;SDS011;1438;50.922;6.704;2023-05-17T05:47:45;31.48;;;17.83;;
2860;SDS011;1438;50.922;6.704;2023-05-17T05:50:11;34.80;;;18.45;;
2860;SDS011;1438;50.922;6.704;2023-05-17T05:52:37;30.33;;;18.63;;
2860;SDS011;1438;50.922;6.704;2023-05-17T05:55:03;36.13;;;16.33;;
2860;SDS011;1438;50.922;6.704;2023-05-17T05:57:30;30.10;;;17.13;;
2860;SDS011;1438;50.922;6.704;2023-05-17T05:59:56;37.08;;;17.33;;
2860;SDS011;1438;50.922;6.704;2023-05-17T06:02:22;25.85;;;15.35;;
2860;SDS011;1438;50.922;6.704;2023-05-17T06:04:48;38.28;;;15.85;;
2860;SDS011;1438;50.922;6.704;2023-05-17T06:07:14;26.38;;;16.58;;
2860;SDS011;1438;50.922;6.704;2023-05-17T06:09:40;27.67;;;15.40;;
2860;SDS011;1438;50.922;6.704;2023-05-17T06:12:07;28.67;;;15.70;;
2860;SDS011;1438;50.922;6.704;2023-05-17T06:14:33;30.10;;;16.95;;
2860;SDS011;1438;50.922;6.704;2023-05-17T06:17:01;37.72;;;17.45;;
2860;SDS011;1438;50.922;6.704;2023-05-17T06:19:27;28.60;;;16.33;;
2860;SDS011;1438;50.922;6.704;2023-05-17T06:21:53;41.45;;;15.18;;
2860;SDS011;1438;50.922;6.704;2023-05-17T06:24:19;26.98;;;15.32;;
2860;SDS011;1438;50.922;6.704;2023-05-17T06:26:45;30.90;;;15.73;;
2860;SDS011;1438;50.922;6.704;2023-05-17T06:29:12;37.00;;;17.27;;
2860;SDS011;1438;50.922;6.704;2023-05-17T06:31:38;25.88;;;15.05;;
2860;SDS011;1438;50.922;6.704;2023-05-17T06:34:04;24.90;;;14.68;;
2860;SDS011;1438;50.922;6.704;2023-05-17T06:36:30;34.70;;;15.00;;
2860;SDS011;1438;50.922;6.704;2023-05-17T06:38:56;27.10;;;13.63;;
2860;SDS011;1438;50.922;6.704;2023-05-17T06:41:22;27.67;;;15.27;;
2860;SDS011;1438;50.922;6.704;2023-05-17T06:43:48;32.60;;;14.60;;
2860;SDS011;1438;50.922;6.704;2023-05-17T06:46:15;20.48;;;13.20;;
2860;SDS011;1438;50.922;6.704;2023-05-17T06:48:41;27.40;;;13.43;;
2860;SDS011;1438;50.922;6.704;2023-05-17T06:51:06;27.27;;;11.90;;
2860;SDS011;1438;50.922;6.704;2023-05-17T06:53:32;23.23;;;10.47;;
2860;SDS011;1438;50.922;6.704;2023-05-17T06:55:58;18.60;;;8.77;;
2860;SDS011;1438;50.922;6.704;2023-05-17T06:58:24;16.40;;;9.50;;
2860;SDS011;1438;50.922;6.704;2023-05-17T07:00:50;15.73;;;9.10;;
2860;SDS011;1438;50.922;6.704;2023-05-17T07:03:17;16.33;;;8.63;;
2860;SDS011;1438;50.922;6.704;2023-05-17T07:05:43;21.57;;;8.10;;
2860;SDS011;1438;50.922;6.704;2023-05-17T07:08:09;15.40;;;7.67;;
2860;SDS011;1438;50.922;6.704;2023-05-17T07:10:34;14.77;;;7.93;;
2860;SDS011;1438;50.922;6.704;2023-05-17T07:13:00;19.47;;;8.97;;
2860;SDS011;1438;50.922;6.704;2023-05-17T07:15:26;18.53;;;8.77;;
2860;SDS011;1438;50.922;6.704;2023-05-17T07:17:52;22.20;;;9.20;;
2860;SDS011;1438;50.922;6.704;2023-05-17T07:20:19;18.20;;;8.10;;
2860;SDS011;1438;50.922;6.704;2023-05-17T07:22:45;11.60;;;7.93;;
2860;SDS011;1438;50.922;6.704;2023-05-17T07:25:12;19.60;;;8.37;;
2860;SDS011;1438;50.922;6.704;2023-05-17T07:27:39;24.03;;;9.63;;
2860;SDS011;1438;50.922;6.704;2023-05-17T07:30:05;12.17;;;7.03;;
2860;SDS011;1438;50.922;6.704;2023-05-17T07:32:31;14.80;;;7.70;;
2860;SDS011;1438;50.922;6.704;2023-05-17T07:34:57;20.37;;;8.27;;
2860;SDS011;1438;50.922;6.704;2023-05-17T07:37:23;29.37;;;7.00;;
2860;SDS011;1438;50.922;6.704;2023-05-17T07:39:49;15.90;;;7.20;;
2860;SDS011;1438;50.922;6.704;2023-05-17T07:42:15;17.70;;;6.03;;
2860;SDS011;1438;50.922;6.704;2023-05-17T07:44:41;14.87;;;5.20;;
2860;SDS011;1438;50.922;6.704;2023-05-17T07:47:07;15.47;;;5.33;;
2860;SDS011;1438;50.922;6.704;2023-05-17T07:49:33;16.73;;;4.70;;
2860;SDS011;1438;50.922;6.704;2023-05-17T07:51:59;13.47;;;5.73;;
2860;SDS011;1438;50.922;6.704;2023-05-17T07:54:26;10.07;;;4.00;;
2860;SDS011;1438;50.922;6.704;2023-05-17T07:56:52;13.97;;;3.93;;
2860;SDS011;1438;50.922;6.704;2023-05-17T07:59:22;12.10;;;3.67;;
2860;SDS011;1438;50.922;6.704;2023-05-17T08:01:48;9.57;;;3.27;;
2860;SDS011;1438;50.922;6.704;2023-05-17T08:04:14;15.60;;;3.43;;
2860;SDS011;1438;50.922;6.704;2023-05-17T08:06:40;11.83;;;3.27;;
2860;SDS011;1438;50.922;6.704;2023-05-17T08:09:07;10.03;;;3.20;;
2860;SDS011;1438;50.922;6.704;2023-05-17T08:11:33;6.50;;;2.70;;
2860;SDS011;1438;50.922;6.704;2023-05-17T08:14:02;11.47;;;3.10;;
2860;SDS011;1438;50.922;6.704;2023-05-17T08:16:29;11.27;;;2.73;;
2860;SDS011;1438;50.922;6.704;2023-05-17T08:18:55;6.23;;;2.37;;
2860;SDS011;1438;50.922;6.704;2023-05-17T08:21:21;9.53;;;3.10;;
2860;SDS011;1438;50.922;6.704;2023-05-17T08:23:47;9.50;;;1.97;;
2860;SDS011;1438;50.922;6.704;2023-05-17T08:26:13;8.70;;;2.20;;
2860;SDS011;1438;50.922;6.704;2023-05-17T08:28:39;7.67;;;2.20;;
2860;SDS011;1438;50.922;6.704;2023-05-17T08:31:05;11.30;;;2.53;;
2860;SDS011;1438;50.922;6.704;2023-05-17T08:33:31;4.97;;;2.10;;
2860;SDS011;1438;50.922;6.704;2023-05-17T08:35:57;10.30;;;2.67;;
2860;SDS011;1438;50.922;6.704;2023-05-17T08:38:25;9.70;;;2.63;;
2860;SDS011;1438;50.922;6.704;2023-05-17T08:40:52;11.50;;;2.93;;
2860;SDS011;1438;50.922;6.704;2023-05-17T08:43:23;9.37;;;2.80;;
2860;SDS011;1438;50.922;6.704;2023-05-17T08:45:50;6.97;;;2.70;;
2860;SDS011;1438;50.922;6.704;2023-05-17T08:48:17;11.00;;;2.83;;
2860;SDS011;1438;50.922;6.704;2023-05-17T08:50:45;7.23;;;3.00;;
2860;SDS011;1438;50.922;6.704;2023-05-17T08:53:11;8.13;;;2.93;;
2860;SDS011;1438;50.922;6.704;2023-05-17T08:55:39;9.47;;;3.70;;
2860;SDS011;1438;50.922;6.704;2023-05-17T08:58:07;8.60;;;4.13;;
2860;SDS011;1438;50.922;6.704;2023-05-17T09:00:33;10.40;;;3.60;;
2860;SDS011;1438;50.922;6.704;2023-05-17T09:03:00;9.73;;;3.70;;
2860;SDS011;1438;50.922;6.704;2023-05-17T09:05:26;7.97;;;3.47;;
2860;SDS011;1438;50.922;6.704;2023-05-17T09:07:52;9.73;;;3.83;;
2860;SDS011;1438;50.922;6.704;2023-05-17T09:10:18;11.20;;;3.73;;
2860;SDS011;1438;50.922;6.704;2023-05-17T09:12:45;12.30;;;3.70;;
2860;SDS011;1438;50.922;6.704;2023-05-17T09:15:14;6.87;;;2.20;;
2860;SDS011;1438;50.922;6.704;2023-05-17T09:17:41;9.53;;;3.27;;
2860;SDS011;1438;50.922;6.704;2023-05-17T09:20:08;11.30;;;3.23;;
2860;SDS011;1438;50.922;6.704;2023-05-17T09:22:34;7.30;;;2.87;;
2860;SDS011;1438;50.922;6.704;2023-05-17T09:25:03;8.70;;;2.90;;
2860;SDS011;1438;50.922;6.704;2023-05-17T09:27:30;10.90;;;2.90;;
2860;SDS011;1438;50.922;6.704;2023-05-17T09:29:59;10.37;;;3.13;;
2860;SDS011;1438;50.922;6.704;2023-05-17T09:32:25;10.27;;;3.10;;
2860;SDS011;1438;50.922;6.704;2023-05-17T09:34:52;6.20;;;3.40;;
2860;SDS011;1438;50.922;6.704;2023-05-17T09:37:20;7.90;;;2.83;;
2860;SDS011;1438;50.922;6.704;2023-05-17T09:39:48;6.53;;;2.50;;
2860;SDS011;1438;50.922;6.704;2023-05-17T09:42:14;8.23;;;2.60;;
2860;SDS011;1438;50.922;6.704;2023-05-17T09:44:48;9.13;;;3.73;;
2860;SDS011;1438;50.922;6.704;2023-05-17T09:47:21;7.00;;;2.60;;
2860;SDS011;1438;50.922;6.704;2023-05-17T09:49:47;10.93;;;2.57;;
2860;SDS011;1438;50.922;6.704;2023-05-17T09:52:16;8.13;;;2.40;;
2860;SDS011;1438;50.922;6.704;2023-05-17T09:54:43;9.30;;;2.47;;
2860;SDS011;1438;50.922;6.704;2023-05-17T09:57:16;5.53;;;2.63;;
2860;SDS011;1438;50.922;6.704;2023-05-17T09:59:42;6.47;;;3.00;;
2860;SDS011;1438;50.922;6.704;2023-05-17T10:02:09;8.70;;;2.70;;
2860;SDS011;1438;50.922;6.704;2023-05-17T10:04:40;6.13;;;3.13;;
2860;SDS011;1438;50.922;6.704;2023-05-17T10:07:06;6.37;;;2.60;;
2860;SDS011;1438;50.922;6.704;2023-05-17T10:09:32;8.30;;;2.80;;
2860;SDS011;1438;50.922;6.704;2023-05-17T10:12:01;11.20;;;3.20;;
2860;SDS011;1438;50.922;6.704;2023-05-17T10:14:28;8.13;;;2.90;;
2860;SDS011;1438;50.922;6.704;2023-05-17T10:16:57;10.20;;;2.93;;
2860;SDS011;1438;50.922;6.704;2023-05-17T10:19:25;5.00;;;2.10;;
2860;SDS011;1438;50.922;6.704;2023-05-17T10:21:51;10.10;;;2.47;;
2860;SDS011;1438;50.922;6.704;2023-05-17T10:24:18;4.50;;;2.27;;
2860;SDS011;1438;50.922;6.704;2023-05-17T10:26:51;5.97;;;2.30;;
2860;SDS011;1438;50.922;6.704;2023-05-17T10:29:17;13.50;;;2.93;;
2860;SDS011;1438;50.922;6.704;2023-05-17T10:31:46;7.40;;;3.13;;
2860;SDS011;1438;50.922;6.704;2023-05-17T10:34:15;5.13;;;1.97;;
2860;SDS011;1438;50.922;6.704;2023-05-17T10:36:42;12.00;;;2.50;;
2860;SDS011;1438;50.922;6.704;2023-05-17T10:39:08;7.77;;;2.50;;
2860;SDS011;1438;50.922;6.704;2023-05-17T10:41:35;17.93;;;3.17;;
2860;SDS011;1438;50.922;6.704;2023-05-17T10:44:03;5.57;;;2.33;;
2860;SDS011;1438;50.922;6.704;2023-05-17T10:46:29;6.53;;;2.43;;
2860;SDS011;1438;50.922;6.704;2023-05-17T10:48:56;6.20;;;2.40;;
2860;SDS011;1438;50.922;6.704;2023-05-17T10:51:35;5.63;;;2.00;;
2860;SDS011;1438;50.922;6.704;2023-05-17T10:56:30;6.20;;;2.60;;
2860;SDS011;1438;50.922;6.704;2023-05-17T11:02:04;10.13;;;2.60;;
2860;SDS011;1438;50.922;6.704;2023-05-17T11:04:38;8.97;;;2.70;;
2860;SDS011;1438;50.922;6.704;2023-05-17T11:09:50;7.67;;;2.47;;
2860;SDS011;1438;50.922;6.704;2023-05-17T11:12:28;5.37;;;2.17;;
2860;SDS011;1438;50.922;6.704;2023-05-17T11:14:56;6.07;;;2.70;;
2860;SDS011;1438;50.922;6.704;2023-05-17T11:17:35;9.80;;;2.40;;
2860;SDS011;1438;50.922;6.704;2023-05-17T11:20:05;7.03;;;2.10;;
2860;SDS011;1438;50.922;6.704;2023-05-17T11:22:34;9.77;;;2.40;;
2860;SDS011;1438;50.922;6.704;2023-05-17T11:25:01;8.70;;;1.97;;
2860;SDS011;1438;50.922;6.704;2023-05-17T11:27:34;10.57;;;2.53;;
2860;SDS011;1438;50.922;6.704;2023-05-17T11:30:06;5.70;;;2.00;;
2860;SDS011;1438;50.922;6.704;2023-05-17T11:32:33;8.20;;;2.10;;
2860;SDS011;1438;50.922;6.704;2023-05-17T11:34:59;11.30;;;2.20;;
2860;SDS011;1438;50.922;6.704;2023-05-17T11:37:26;6.40;;;2.40;;
2860;SDS011;1438;50.922;6.704;2023-05-17T11:39:59;3.77;;;2.17;;
2860;SDS011;1438;50.922;6.704;2023-05-17T11:42:26;5.43;;;1.97;;
2860;SDS011;1438;50.922;6.704;2023-05-17T11:44:55;6.07;;;2.10;;
2860;SDS011;1438;50.922;6.704;2023-05-17T11:47:22;5.33;;;2.23;;
2860;SDS011;1438;50.922;6.704;2023-05-17T11:49:48;5.77;;;2.17;;
2860;SDS011;1438;50.922;6.704;2023-05-17T11:52:16;7.33;;;2.40;;
2860;SDS011;1438;50.922;6.704;2023-05-17T11:54:42;4.13;;;1.73;;
2860;SDS011;1438;50.922;6.704;2023-05-17T11:57:10;4.77;;;1.97;;
2860;SDS011;1438;50.922;6.704;2023-05-17T11:59:38;4.70;;;1.87;;
2860;SDS011;1438;50.922;6.704;2023-05-17T12:02:04;9.10;;;2.37;;
2860;SDS011;1438;50.922;6.704;2023-05-17T12:04:33;9.60;;;2.10;;
2860;SDS011;1438;50.922;6.704;2023-05-17T12:07:01;5.93;;;2.03;;
2860;SDS011;1438;50.922;6.704;2023-05-17T12:09:27;4.70;;;1.60;;
2860;SDS011;1438;50.922;6.704;2023-05-17T12:11:53;6.03;;;2.23;;
2860;SDS011;1438;50.922;6.704;2023-05-17T12:14:20;5.53;;;2.23;;
2860;SDS011;1438;50.922;6.704;2023-05-17T12:16:47;8.77;;;2.50;;
2860;SDS011;1438;50.922;6.704;2023-05-17T12:19:18;5.10;;;2.17;;
2860;SDS011;1438;50.922;6.704;2023-05-17T12:21:45;8.50;;;2.00;;
2860;SDS011;1438;50.922;6.704;2023-05-17T12:24:11;7.00;;;2.33;;
2860;SDS011;1438;50.922;6.704;2023-05-17T12:26:44;7.50;;;2.40;;
2860;SDS011;1438;50.922;6.704;2023-05-17T12:29:10;7.67;;;2.17;;
2860;SDS011;1438;50.922;6.704;2023-05-17T12:31:43;6.03;;;1.73;;
2860;SDS011;1438;50.922;6.704;2023-05-17T12:34:10;6.00;;;2.03;;
2860;SDS011;1438;50.922;6.704;2023-05-17T12:36:37;8.07;;;2.20;;
2860;SDS011;1438;50.922;6.704;2023-05-17T12:39:04;5.93;;;2.23;;
2860;SDS011;1438;50.922;6.704;2023-05-17T12:41:33;6.00;;;1.57;;
2860;SDS011;1438;50.922;6.704;2023-05-17T12:44:00;5.03;;;2.10;;
2860;SDS011;1438;50.922;6.704;2023-05-17T12:46:26;8.10;;;2.33;;
2860;SDS011;1438;50.922;6.704;2023-05-17T12:48:53;6.80;;;2.00;;
2860;SDS011;1438;50.922;6.704;2023-05-17T12:51:22;4.27;;;2.00;;
2860;SDS011;1438;50.922;6.704;2023-05-17T12:53:52;6.87;;;2.30;;
2860;SDS011;1438;50.922;6.704;2023-05-17T13:01:33;3.90;;;2.03;;
2860;SDS011;1438;50.922;6.704;2023-05-17T13:03:59;5.40;;;2.00;;
2860;SDS011;1438;50.922;6.704;2023-05-17T13:06:25;6.60;;;2.00;;
2860;SDS011;1438;50.922;6.704;2023-05-17T13:08:58;6.53;;;2.47;;
2860;SDS011;1438;50.922;6.704;2023-05-17T13:11:24;8.40;;;2.13;;
2860;SDS011;1438;50.922;6.704;2023-05-17T13:13:50;3.93;;;2.00;;
2860;SDS011;1438;50.922;6.704;2023-05-17T13:16:16;4.70;;;2.20;;
2860;SDS011;1438;50.922;6.704;2023-05-17T13:18:46;4.97;;;1.60;;
2860;SDS011;1438;50.922;6.704;2023-05-17T13:21:12;6.27;;;2.33;;
2860;SDS011;1438;50.922;6.704;2023-05-17T13:23:42;8.60;;;2.57;;
2860;SDS011;1438;50.922;6.704;2023-05-17T13:26:08;8.10;;;1.97;;
2860;SDS011;1438;50.922;6.704;2023-05-17T13:28:35;4.40;;;1.73;;
2860;SDS011;1438;50.922;6.704;2023-05-17T13:31:01;6.07;;;1.73;;
2860;SDS011;1438;50.922;6.704;2023-05-17T13:33:27;3.57;;;1.77;;
2860;SDS011;1438;50.922;6.704;2023-05-17T13:35:53;6.77;;;1.60;;
2860;SDS011;1438;50.922;6.704;2023-05-17T13:38:19;4.33;;;1.83;;
2860;SDS011;1438;50.922;6.704;2023-05-17T13:40:45;4.80;;;1.90;;
2860;SDS011;1438;50.922;6.704;2023-05-17T13:43:11;5.07;;;2.10;;
2860;SDS011;1438;50.922;6.704;2023-05-17T13:45:37;8.20;;;2.30;;
2860;SDS011;1438;50.922;6.704;2023-05-17T13:48:03;4.90;;;2.07;;
2860;SDS011;1438;50.922;6.704;2023-05-17T13:50:30;9.50;;;1.93;;
2860;SDS011;1438;50.922;6.704;2023-05-17T13:52:56;3.80;;;1.70;;
2860;SDS011;1438;50.922;6.704;2023-05-17T13:55:22;5.20;;;2.07;;
2860;SDS011;1438;50.922;6.704;2023-05-17T13:57:48;4.43;;;1.70;;
2860;SDS011;1438;50.922;6.704;2023-05-17T14:00:14;5.03;;;2.50;;
2860;SDS011;1438;50.922;6.704;2023-05-17T14:02:40;5.50;;;2.30;;
2860;SDS011;1438;50.922;6.704;2023-05-17T14:05:07;4.33;;;1.90;;
2860;SDS011;1438;50.922;6.704;2023-05-17T14:07:34;3.63;;;1.80;;
2860;SDS011;1438;50.922;6.704;2023-05-17T14:10:05;5.80;;;2.10;;
2860;SDS011;1438;50.922;6.704;2023-05-17T14:12:31;5.77;;;2.20;;
2860;SDS011;1438;50.922;6.704;2023-05-17T14:14:57;3.30;;;2.00;;
2860;SDS011;1438;50.922;6.704;2023-05-17T14:17:23;5.70;;;2.00;;
2860;SDS011;1438;50.922;6.704;2023-05-17T14:19:49;6.40;;;1.60;;
2860;SDS011;1438;50.922;6.704;2023-05-17T14:22:16;4.40;;;1.97;;
2860;SDS011;1438;50.922;6.704;2023-05-17T14:24:42;4.03;;;1.60;;
2860;SDS011;1438;50.922;6.704;2023-05-17T14:27:08;6.40;;;1.80;;
2860;SDS011;1438;50.922;6.704;2023-05-17T14:29:35;5.23;;;2.10;;
2860;SDS011;1438;50.922;6.704;2023-05-17T14:32:01;5.47;;;1.83;;
2860;SDS011;1438;50.922;6.704;2023-05-17T14:34:27;8.23;;;2.67;;
2860;SDS011;1438;50.922;6.704;2023-05-17T14:36:54;6.77;;;2.03;;
2860;SDS011;1438;50.922;6.704;2023-05-17T14:39:20;6.50;;;2.67;;
2860;SDS011;1438;50.922;6.704;2023-05-17T14:41:46;5.50;;;2.03;;
2860;SDS011;1438;50.922;6.704;2023-05-17T14:44:13;3.30;;;2.10;;
2860;SDS011;1438;50.922;6.704;2023-05-17T14:46:39;4.13;;;2.10;;
2860;SDS011;1438;50.922;6.704;2023-05-17T14:49:05;8.27;;;2.40;;
2860;SDS011;1438;50.922;6.704;2023-05-17T14:51:31;3.10;;;1.73;;
2860;SDS011;1438;50.922;6.704;2023-05-17T14:53:57;6.73;;;2.30;;
2860;SDS011;1438;50.922;6.704;2023-05-17T14:56:23;9.37;;;2.17;;
2860;SDS011;1438;50.922;6.704;2023-05-17T14:58:49;4.67;;;1.97;;
2860;SDS011;1438;50.922;6.704;2023-05-17T15:01:16;6.43;;;2.20;;
2860;SDS011;1438;50.922;6.704;2023-05-17T15:03:42;9.23;;;2.33;;
2860;SDS011;1438;50.922;6.704;2023-05-17T15:06:08;8.33;;;2.43;;
2860;SDS011;1438;50.922;6.704;2023-05-17T15:08:34;5.73;;;2.37;;
2860;SDS011;1438;50.922;6.704;2023-05-17T15:11:01;5.27;;;2.27;;
2860;SDS011;1438;50.922;6.704;2023-05-17T15:13:27;10.00;;;1.90;;
2860;SDS011;1438;50.922;6.704;2023-05-17T15:15:53;7.10;;;2.17;;
2860;SDS011;1438;50.922;6.704;2023-05-17T15:18:19;7.23;;;2.10;;
2860;SDS011;1438;50.922;6.704;2023-05-17T15:20:46;5.80;;;2.37;;
2860;SDS011;1438;50.922;6.704;2023-05-17T15:23:12;4.00;;;1.93;;
2860;SDS011;1438;50.922;6.704;2023-05-17T15:25:38;6.73;;;2.67;;